Date,TemperatureHighF,TemperatureAvgF,TemperatureLowF,DewpointHighF,DewpointAvgF,DewpointLowF,HumidityHigh,HumidityAvg,HumidityLow,PressureMaxIn,PressureMinIn,WindSpeedMaxMPH,WindSpeedAvgMPH,GustSpeedMaxMPH,PrecipitationSumIn
2013-2-1,34.0,28.6,20.0,16.0,11.0,6.0,58,47,35,30.05,29.53,26,9,0,0.00
2013-2-2,32.0,24.6,16.0,13.0,8.7,5.0,66,51,39,30.22,30.03,11,5,0,0.00
2013-2-3,29.0,25.5,21.0,23.0,18.9,12.0,90,76,53,30.03,29.70,13,3,0,0.00
2013-2-4,32.0,25.2,20.0,19.0,11.4,3.0,82,57,37,29.89,29.69,16,7,0,0.00
2013-2-5,31.0,23.7,16.0,17.0,9.2,3.0,69,54,41,30.02,29.89,13,4,0,0.00
2013-2-6,39.0,29.9,23.0,30.0,19.6,2.0,90,67,43,30.29,29.91,15,4,0,0.15
2013-2-7,29.0,22.6,15.0,4.0,-1.3,-7.0,48,35,21,30.51,30.28,10,4,0,0.09
2013-2-8,24.0,19.6,17.0,20.0,15.4,3.0,100,85,40,30.49,29.98,19,8,0,0.00
2013-2-9,24.0,18.8,14.0,24.0,14.2,7.0,100,82,72,30.16,29.65,18,7,0,0.00
2013-2-10,39.0,24.2,10.0,14.0,7.5,2.0,74,51,32,30.36,30.16,15,4,0,0.00
2013-2-11,36.0,27.5,22.0,36.0,16.0,2.0,100,64,39,30.33,29.67,7,3,0,0.18
2013-2-12,46.0,40.0,34.0,36.0,32.4,30.0,100,75,56,29.82,29.57,19,9,0,0.24
2013-2-13,46.0,37.2,29.0,30.0,26.3,22.0,85,66,49,29.84,29.71,14,4,0,0.00
2013-2-14,45.0,36.9,31.0,27.0,24.8,22.0,78,62,45,29.98,29.70,9,4,0,0.00
2013-2-15,51.0,39.7,29.0,37.0,30.9,23.0,94,72,54,29.98,29.87,20,7,0,0.00
2013-2-16,44.0,37.0,33.0,36.0,28.2,20.0,98,71,53,29.93,29.72,11,3,0,0.25
2013-2-17,32.0,23.1,17.0,20.0,12.1,3.0,91,64,41,29.72,29.31,42,12,0,0.22
2013-2-18,32.0,22.8,14.0,9.0,2.5,-2.0,66,42,26,30.11,29.61,34,11,0,0.26
2013-2-19,48.0,33.7,22.0,40.0,17.8,1.0,100,53,36,30.13,29.71,13,5,0,0.06
2013-2-20,37.0,33.2,27.0,37.0,21.3,16.0,99,62,48,29.73,29.52,20,9,0,0.90
2013-2-21,32.0,26.8,23.0,17.0,14.2,12.0,71,59,47,30.16,29.72,24,7,0,0.00
2013-2-22,45.0,32.0,21.0,28.0,21.6,14.0,87,67,44,30.37,30.16,16,5,0,0.00
2013-2-23,40.0,35.6,32.0,35.0,30.4,25.0,100,81,71,30.32,29.95,10,3,0,0.06
2013-2-24,34.0,34.0,34.0,34.0,34.0,34.0,99,99,99,29.95,29.95,4,4,0,0.00
2013-2-25,45.0,38.7,33.0,37.0,33.8,31.0,99,83,67,30.22,30.04,6,2,0,1.42
2013-2-26,45.0,38.5,32.0,40.0,33.9,30.0,100,84,70,30.33,30.17,11,4,0,0.00
2013-2-27,39.0,37.7,37.0,39.0,35.3,33.0,99,91,84,30.18,30.06,25,10,0,0.00
2013-2-28,50.0,44.2,36.0,41.0,34.3,23.0,100,70,36,29.61,29.51,9,3,0,0.00